Time;durP1;ratioP1;P1;durP2;ratioP2;P2;SDS_P1;SDS_P2;PMS_P1;PMS_P2;Temp;Humidity;BMP_temperature;BMP_pressure;BME280_temperature;BME280_humidity;BME280_pressure;Samples;Min_cycle;Max_cycle;Signal;HPM_P1;HPM_P2
2022/08/05 00:00:58;;;;;;;10.35;5.38;;;23.00;99.90;;;;;;5013438;28;20022;-75
2022/08/05 00:03:24;;;;;;;12.85;5.72;;;22.90;99.90;;;;;;5002707;28;20037;-72
2022/08/05 00:05:49;;;;;;;16.60;6.25;;;23.00;99.90;;;;;;4998896;28;20027;-68
2022/08/05 00:08:15;;;;;;;12.38;6.28;;;22.90;99.90;;;;;;4994044;28;20026;-67
2022/08/05 00:10:41;;;;;;;10.77;5.28;;;22.90;99.90;;;;;;4995721;28;20498;-74
2022/08/05 00:13:07;;;;;;;16.48;5.55;;;22.80;99.90;;;;;;5009155;28;20032;-76
2022/08/05 00:15:33;;;;;;;8.60;5.80;;;22.70;99.90;;;;;;5010271;28;20065;-71
2022/08/05 00:17:59;;;;;;;11.50;5.88;;;22.60;99.90;;;;;;5012428;28;20424;-76
2022/08/05 00:20:24;;;;;;;13.20;6.20;;;22.50;99.90;;;;;;5013374;28;20037;-68
2022/08/05 00:22:50;;;;;;;12.45;6.13;;;22.60;99.90;;;;;;5013365;28;20026;-76
2022/08/05 00:25:16;;;;;;;17.92;6.55;;;22.50;99.90;;;;;;5013674;28;20030;-76
2022/08/05 00:27:42;;;;;;;12.63;5.70;;;22.50;99.90;;;;;;5015734;28;20034;-73
2022/08/05 00:30:08;;;;;;;15.82;6.10;;;22.40;99.90;;;;;;5016583;28;20041;-74
2022/08/05 00:32:34;;;;;;;11.80;5.22;;;22.40;99.90;;;;;;5013100;28;20034;-74
2022/08/05 00:35:00;;;;;;;20.42;6.30;;;22.30;99.90;;;;;;5020013;28;20049;-74
2022/08/05 00:37:26;;;;;;;17.77;6.05;;;22.20;99.90;;;;;;5019249;28;20113;-72
2022/08/05 00:39:52;;;;;;;16.40;6.90;;;22.20;99.90;;;;;;5021145;28;20018;-61
2022/08/05 00:42:33;;;;;;;10.13;6.50;;;22.20;99.90;;;;;;5024940;28;20071;-74
2022/08/05 00:45:00;;;;;;;14.50;6.55;;;22.20;99.90;;;;;;5015703;28;20062;-74
2022/08/05 00:47:26;;;;;;;10.88;6.38;;;22.20;99.90;;;;;;5012070;28;20532;-72
2022/08/05 00:49:51;;;;;;;13.70;5.88;;;22.20;99.90;;;;;;5015485;28;20101;-74
2022/08/05 00:52:18;;;;;;;19.13;6.70;;;22.10;99.90;;;;;;5015002;28;20353;-74
2022/08/05 00:54:44;;;;;;;10.15;5.90;;;22.00;99.90;;;;;;5012094;28;20025;-75
2022/08/05 00:57:10;;;;;;;12.20;6.15;;;22.00;99.90;;;;;;5011794;28;20029;-75
2022/08/05 00:59:36;;;;;;;9.98;6.32;;;22.00;99.90;;;;;;5012170;28;20026;-75
2022/08/05 01:02:03;;;;;;;14.98;6.50;;;22.00;99.90;;;;;;5012302;28;20030;-74
2022/08/05 01:04:28;;;;;;;13.27;6.35;;;22.00;99.90;;;;;;5012226;28;20022;-70
2022/08/05 01:06:54;;;;;;;17.35;5.75;;;22.00;99.90;;;;;;5008003;28;20068;-73
2022/08/05 01:09:20;;;;;;;11.95;5.82;;;21.90;99.90;;;;;;5012156;28;20376;-74
2022/08/05 01:11:52;;;;;;;12.15;6.47;;;21.90;99.90;;;;;;5012120;28;20125;-74
2022/08/05 01:14:18;;;;;;;10.73;5.45;;;21.80;99.90;;;;;;5011869;28;20084;-72
2022/08/05 01:17:09;;;;;;;10.98;6.97;;;21.80;99.90;;;;;;5008132;28;20029;-73
2022/08/05 01:19:43;;;;;;;9.77;6.37;;;21.80;99.90;;;;;;5010015;28;20056;-71
2022/08/05 01:22:12;;;;;;;11.48;5.95;;;21.70;99.90;;;;;;5011814;28;20079;-74
2022/08/05 01:24:47;;;;;;;12.32;6.38;;;21.60;99.90;;;;;;5011856;28;20387;-71
2022/08/05 01:27:30;;;;;;;11.27;6.53;;;21.60;99.90;;;;;;5009318;28;20026;-72
2022/08/05 01:30:01;;;;;;;17.42;6.57;;;21.60;99.90;;;;;;5010078;28;20022;-74
2022/08/05 01:32:34;;;;;;;13.50;6.50;;;21.50;99.90;;;;;;5011522;28;20038;-74
2022/08/05 01:35:07;;;;;;;11.45;6.75;;;21.60;99.90;;;;;;5011646;28;20022;-74
2022/08/05 01:37:42;;;;;;;13.00;6.72;;;21.60;99.90;;;;;;5011618;28;20026;-74
2022/08/05 01:40:09;;;;;;;10.15;6.03;;;21.70;99.90;;;;;;5008964;28;20030;-72
2022/08/05 01:42:38;;;;;;;12.38;6.32;;;20.30;99.90;;;;;;5007487;28;20480;-74
2022/08/05 01:45:06;;;;;;;15.07;7.20;;;21.60;99.90;;;;;;5010777;28;20049;-74
2022/08/05 01:47:34;;;;;;;12.13;7.15;;;21.60;99.90;;;;;;5011386;28;20029;-73
2022/08/05 01:50:03;;;;;;;11.73;6.78;;;21.60;99.90;;;;;;5011407;28;20380;-73
2022/08/05 01:52:33;;;;;;;11.77;7.10;;;21.40;99.90;;;;;;5011276;28;20120;-74
2022/08/05 01:55:04;;;;;;;12.50;7.10;;;21.40;99.90;;;;;;5012026;28;20069;-75
2022/08/05 01:57:36;;;;;;;10.85;6.80;;;21.40;99.90;;;;;;5010023;28;20510;-73
2022/08/05 02:00:05;;;;;;;15.85;7.30;;;21.30;99.90;;;;;;5010038;28;20052;-74
2022/08/05 02:02:35;;;;;;;14.30;7.72;;;21.20;99.90;;;;;;5004877;28;20025;-73
2022/08/05 02:05:06;;;;;;;16.73;6.85;;;21.20;99.90;;;;;;5011099;28;20072;-74
2022/08/05 02:07:33;;;;;;;12.82;7.15;;;20.90;99.90;;;;;;5008188;28;20353;-72
2022/08/05 02:09:59;;;;;;;12.60;6.95;;;20.90;99.90;;;;;;5006601;28;20018;-74
2022/08/05 02:12:29;;;;;;;12.65;7.00;;;;;;;;;;5010476;28;20090;-74
2022/08/05 02:15:13;;;;;;;13.02;7.07;;;20.80;99.90;;;;;;5010381;28;20036;-71
2022/08/05 02:17:57;;;;;;;14.15;6.60;;;20.70;99.90;;;;;;5010397;28;20041;-75
2022/08/05 02:20:27;;;;;;;13.88;6.45;;;20.60;99.90;;;;;;5007233;28;20025;-73
2022/08/05 02:23:04;;;;;;;10.40;6.30;;;20.60;99.90;;;;;;5006568;28;20053;-74
2022/08/05 02:25:34;;;;;;;10.40;6.47;;;20.60;99.90;;;;;;5010539;28;20036;-74
2022/08/05 02:28:01;;;;;;;10.98;6.45;;;20.60;99.90;;;;;;5010195;28;20036;-73
2022/08/05 02:30:31;;;;;;;12.05;6.47;;;20.60;99.90;;;;;;5009985;28;20052;-75
2022/08/05 02:32:59;;;;;;;10.82;6.85;;;20.60;99.90;;;;;;5008228;28;20041;-74
2022/08/05 02:35:27;;;;;;;12.07;7.15;;;20.60;99.90;;;;;;5010261;28;20093;-74
2022/08/05 02:37:54;;;;;;;12.43;7.18;;;20.50;99.90;;;;;;5009839;28;20032;-74
2022/08/05 02:40:21;;;;;;;12.13;6.85;;;20.40;99.90;;;;;;5009964;28;20435;-73
2022/08/05 02:42:48;;;;;;;13.25;6.88;;;20.40;99.90;;;;;;5009838;28;20060;-72
2022/08/05 02:45:16;;;;;;;12.93;6.70;;;20.40;99.90;;;;;;5010023;28;20046;-75
2022/08/05 02:47:43;;;;;;;10.00;6.13;;;20.40;99.90;;;;;;5010527;28;20380;-74
2022/08/05 02:50:12;;;;;;;12.73;7.03;;;20.30;99.90;;;;;;5009975;28;20032;-74
2022/08/05 02:52:40;;;;;;;13.15;6.82;;;20.30;99.90;;;;;;5009959;28;20691;-74
2022/08/05 02:55:08;;;;;;;13.82;7.05;;;20.30;99.90;;;;;;5010090;28;20029;-75
2022/08/05 02:57:37;;;;;;;10.35;6.60;;;20.40;99.90;;;;;;5012993;28;20412;-74
2022/08/05 03:00:04;;;;;;;12.88;7.35;;;20.40;99.90;;;;;;5013960;28;20451;-73
2022/08/05 03:02:42;;;;;;;9.55;6.28;;;20.40;99.90;;;;;;5013913;28;20053;-75
2022/08/05 03:05:11;;;;;;;11.52;7.20;;;20.40;99.90;;;;;;5013614;28;20037;-72
2022/08/05 03:07:39;;;;;;;19.38;7.78;;;20.30;99.90;;;;;;5013562;28;20018;-75
2022/08/05 03:10:07;;;;;;;12.30;7.70;;;20.20;99.90;;;;;;5013552;28;20084;-75
2022/08/05 03:12:35;;;;;;;10.40;6.78;;;20.10;99.90;;;;;;5013572;28;20113;-70
2022/08/05 03:15:02;;;;;;;13.32;6.95;;;20.10;99.90;;;;;;5013321;28;20026;-73
2022/08/05 03:17:28;;;;;;;20.40;7.80;;;20.10;99.90;;;;;;5013741;28;20030;-74
2022/08/05 03:19:54;;;;;;;11.52;6.65;;;20.00;99.90;;;;;;5013360;28;20028;-73
2022/08/05 03:22:19;;;;;;;9.80;6.18;;;20.00;99.90;;;;;;5013519;28;20026;-74
2022/08/05 03:24:47;;;;;;;12.25;6.30;;;20.00;99.90;;;;;;5013475;28;20084;-75
2022/08/05 03:27:13;;;;;;;12.05;7.15;;;20.10;99.90;;;;;;5013377;28;20037;-74
2022/08/05 03:29:39;;;;;;;13.70;6.53;;;20.00;99.90;;;;;;5013654;28;20026;-75
2022/08/05 03:32:07;;;;;;;13.88;7.38;;;20.10;99.90;;;;;;5028908;28;20697;-76
2022/08/05 03:34:33;;;;;;;10.88;7.00;;;20.10;99.90;;;;;;5013253;28;20088;-74
2022/08/05 03:37:00;;;;;;;12.30;7.60;;;20.20;99.90;;;;;;5013227;28;20109;-75
2022/08/05 03:39:26;;;;;;;15.95;6.60;;;20.20;99.90;;;;;;5013491;28;20025;-74
2022/08/05 03:41:51;;;;;;;11.10;6.80;;;20.30;99.90;;;;;;5013357;28;20026;-76
2022/08/05 03:44:17;;;;;;;8.32;5.93;;;20.40;99.90;;;;;;5013039;28;20050;-74
2022/08/05 03:46:43;;;;;;;10.18;6.22;;;20.60;99.90;;;;;;5013464;28;20037;-74
2022/08/05 03:49:09;;;;;;;15.27;7.82;;;20.90;99.90;;;;;;5013333;28;20030;-73
2022/08/05 03:51:41;;;;;;;11.82;6.57;;;21.20;99.90;;;;;;5013018;28;20030;-75
2022/08/05 03:54:30;;;;;;;12.63;6.97;;;21.30;99.90;;;;;;5013029;28;20030;-74
2022/08/05 03:56:58;;;;;;;12.23;7.80;;;21.40;99.90;;;;;;5013102;28;20084;-74
2022/08/05 03:59:48;;;;;;;14.25;7.65;;;21.30;99.90;;;;;;5012720;28;20022;-74
2022/08/05 04:02:16;;;;;;;11.38;7.18;;;21.40;99.90;;;;;;5012024;28;20477;-75
2022/08/05 04:04:43;;;;;;;12.43;7.18;;;21.30;99.90;;;;;;5004677;28;20560;-75
2022/08/05 04:07:10;;;;;;;15.80;7.32;;;21.50;99.90;;;;;;5010161;28;20468;-74
2022/08/05 04:09:36;;;;;;;11.18;7.18;;;22.00;99.90;;;;;;5014120;28;20022;-76
2022/08/05 04:12:02;;;;;;;10.20;6.82;;;22.60;99.90;;;;;;5014245;28;20057;-75
2022/08/05 04:14:29;;;;;;;15.13;8.07;;;23.20;99.40;;;;;;4999913;28;20673;-75
2022/08/05 04:16:55;;;;;;;10.93;6.57;;;23.70;97.70;;;;;;5014044;28;20033;-76
2022/08/05 04:19:21;;;;;;;13.15;7.05;;;24.10;96.70;;;;;;5015042;28;20063;-76
2022/08/05 04:21:47;;;;;;;10.77;7.07;;;;;;;;;;5009764;28;20034;-69
2022/08/05 04:24:13;;;;;;;18.42;7.68;;;25.10;98.50;;;;;;5010702;28;20022;-76
2022/08/05 04:26:39;;;;;;;12.60;7.47;;;;;;;;;;5013534;28;20022;-76
2022/08/05 04:29:06;;;;;;;10.18;7.53;;;;;;;;;;5015316;28;20052;-77
2022/08/05 04:31:32;;;;;;;13.70;6.55;;;26.10;97.80;;;;;;5014918;28;20042;-77
2022/08/05 04:33:57;;;;;;;9.98;6.97;;;26.50;87.70;;;;;;5014420;28;20022;-77
2022/08/05 04:36:24;;;;;;;11.75;6.97;;;;;;;;;;5007226;28;20109;-77
2022/08/05 04:38:51;;;;;;;12.65;7.55;;;26.00;96.40;;;;;;5014566;28;20052;-78
2022/08/05 04:41:17;;;;;;;12.18;8.00;;;27.40;93.80;;;;;;5014418;28;20033;-77
2022/08/05 04:43:42;;;;;;;10.82;6.97;;;27.90;86.10;;;;;;5004470;28;20029;-78
2022/08/05 04:46:09;;;;;;;22.10;7.78;;;;;;;;;;5014952;28;20057;-77
2022/08/05 04:48:35;;;;;;;18.70;7.13;;;;;;;;;;5014913;28;20383;-78
2022/08/05 04:51:01;;;;;;;11.57;6.88;;;28.10;82.70;;;;;;5014015;28;20120;-78
2022/08/05 04:53:27;;;;;;;9.82;7.20;;;28.90;96.30;;;;;;5014772;28;20052;-78
2022/08/05 04:55:54;;;;;;;12.93;7.10;;;29.60;80.90;;;;;;5014857;28;20018;-78
2022/08/05 04:58:20;;;;;;;15.57;7.20;;;;;;;;;;5014735;28;20028;-77
2022/08/05 05:00:45;;;;;;;20.85;7.82;;;29.90;75.20;;;;;;5011256;28;20021;-77
2022/08/05 05:03:11;;;;;;;14.85;7.38;;;30.00;76.50;;;;;;5009042;28;20526;-77
2022/08/05 05:05:38;;;;;;;13.75;6.28;;;;;;;;;;5011924;28;20025;-77
2022/08/05 05:08:08;;;;;;;17.55;6.05;;;30.60;73.60;;;;;;5014433;28;20030;-75
2022/08/05 05:10:42;;;;;;;9.52;6.47;;;30.60;73.60;;;;;;5013355;28;20164;-77
2022/08/05 05:13:13;;;;;;;10.82;6.43;;;29.20;71.50;;;;;;5008839;28;20042;-77
2022/08/05 05:15:40;;;;;;;12.77;6.13;;;27.50;74.60;;;;;;4998666;28;20388;-77
2022/08/05 05:18:07;;;;;;;12.95;7.00;;;26.80;90.50;;;;;;5007747;28;20066;-66
2022/08/05 05:20:34;;;;;;;14.52;7.38;;;;;;;;;;5006696;28;20740;-73
2022/08/05 05:23:05;;;;;;;16.05;6.80;;;26.50;84.00;;;;;;5014722;28;20037;-76
2022/08/05 05:25:31;;;;;;;10.75;6.18;;;26.60;86.50;;;;;;5008828;28;20037;-76
2022/08/05 05:27:57;;;;;;;11.82;6.30;;;26.70;87.30;;;;;;5012781;28;20021;-75
2022/08/05 05:30:24;;;;;;;10.88;7.07;;;26.90;86.30;;;;;;5010168;28;20495;-72
2022/08/05 05:32:49;;;;;;;14.60;7.95;;;26.90;86.40;;;;;;5002010;28;20034;-77
2022/08/05 05:35:15;;;;;;;15.15;8.20;;;26.90;85.30;;;;;;5001233;28;20053;-77
2022/08/05 05:37:54;;;;;;;15.88;7.65;;;27.00;87.20;;;;;;5009762;28;20113;-77
2022/08/05 05:40:23;;;;;;;16.95;7.00;;;26.60;86.40;;;;;;5012411;28;20034;-76
2022/08/05 05:42:50;;;;;;;13.25;7.80;;;26.90;87.10;;;;;;5012021;28;20032;-77
2022/08/05 05:45:16;;;;;;;21.65;8.63;;;26.30;86.80;;;;;;5022713;28;20499;-77
2022/08/05 05:47:43;;;;;;;15.63;7.70;;;26.60;87.80;;;;;;5015191;28;20022;-77
2022/08/05 05:50:11;;;;;;;16.13;7.57;;;26.40;88.40;;;;;;5013566;28;20025;-75
2022/08/05 05:52:37;;;;;;;15.88;7.65;;;26.40;88.70;;;;;;5013289;28;20034;-76
2022/08/05 05:55:07;;;;;;;19.08;8.68;;;26.60;90.30;;;;;;5003956;28;20034;-77
2022/08/05 05:57:34;;;;;;;10.60;6.38;;;26.80;88.90;;;;;;5013110;28;20491;-78
2022/08/05 06:00:00;;;;;;;18.98;7.95;;;26.50;89.50;;;;;;5013112;28;20022;-77
2022/08/05 06:02:26;;;;;;;14.85;7.15;;;26.90;88.90;;;;;;5013211;28;20052;-77
2022/08/05 06:04:52;;;;;;;16.90;7.30;;;27.00;86.90;;;;;;5013102;28;20464;-77
2022/08/05 06:07:18;;;;;;;10.75;7.35;;;27.40;87.30;;;;;;5013211;28;20073;-78
2022/08/05 06:09:44;;;;;;;14.02;6.97;;;27.60;87.30;;;;;;5013041;28;20037;-75
2022/08/05 06:12:10;;;;;;;11.57;6.35;;;27.60;88.50;;;;;;5013040;28;20037;-75
2022/08/05 06:14:35;;;;;;;19.00;7.38;;;27.80;85.90;;;;;;5013109;28;20376;-76
2022/08/05 06:17:02;;;;;;;13.98;6.63;;;28.00;84.40;;;;;;5012910;28;20037;-71
2022/08/05 06:19:28;;;;;;;17.63;7.80;;;28.10;82.80;;;;;;5013029;28;20018;-63
2022/08/05 06:21:53;;;;;;;12.98;7.25;;;28.10;83.70;;;;;;5013194;28;20105;-77
2022/08/05 06:24:19;;;;;;;16.83;7.43;;;28.40;83.30;;;;;;5012967;28;20523;-77
2022/08/05 06:26:45;;;;;;;11.95;6.95;;;28.60;82.10;;;;;;5012853;28;20073;-78
2022/08/05 06:29:11;;;;;;;15.57;6.85;;;;;;;;;;5012437;28;20481;-62
2022/08/05 06:31:37;;;;;;;13.32;6.93;;;28.80;80.60;;;;;;5012549;28;20030;-62
2022/08/05 06:34:04;;;;;;;14.05;7.13;;;;;;;;;;5012858;28;20528;-76
2022/08/05 06:36:30;;;;;;;13.10;6.82;;;;;;;;;;5012809;28;20076;-76
2022/08/05 06:38:56;;;;;;;12.18;6.65;;;;;;;;;;4992825;28;20085;-77
2022/08/05 06:41:22;;;;;;;11.90;6.93;;;29.30;79.00;;;;;;4999725;28;20030;-78
2022/08/05 06:43:48;;;;;;;16.33;7.25;;;29.40;78.30;;;;;;5012399;28;20049;-77
2022/08/05 06:46:15;;;;;;;13.07;6.70;;;;;;;;;;5012805;28;20034;-69
2022/08/05 06:48:41;;;;;;;14.90;7.70;;;29.40;78.20;;;;;;5012639;28;20018;-70
2022/08/05 06:51:07;;;;;;;13.30;6.53;;;;;;;;;;5012742;28;20068;-74
2022/08/05 06:53:34;;;;;;;12.82;6.93;;;;;;;;;;5012831;28;20026;-71
2022/08/05 06:56:02;;;;;;;13.88;6.95;;;30.10;75.60;;;;;;5012610;28;20033;-76
2022/08/05 06:58:28;;;;;;;8.93;5.25;;;;;;;;;;5012756;28;20469;-77
2022/08/05 07:00:58;;;;;;;13.73;5.32;;;30.30;72.30;;;;;;5005866;28;20034;-77
2022/08/05 07:03:25;;;;;;;15.02;5.50;;;;;;;;;;5006036;28;20022;-77
2022/08/05 07:05:51;;;;;;;12.60;5.82;;;;;;;;;;5012434;28;20065;-77
2022/08/05 07:08:17;;;;;;;10.38;5.60;;;30.80;72.70;;;;;;5012071;28;20026;-77
2022/08/05 07:10:43;;;;;;;9.75;5.45;;;31.20;72.60;;;;;;5012424;28;20104;-76
2022/08/05 07:18:37;;;;;;;9.70;5.10;;;31.00;70.10;;;;;;5012292;28;20034;-77
2022/08/05 07:21:05;;;;;;;10.35;5.53;;;30.80;69.70;;;;;;5027611;28;20092;-77
2022/08/05 07:23:30;;;;;;;13.82;5.88;;;31.30;68.90;;;;;;5012335;28;20030;-77
2022/08/05 07:25:56;;;;;;;13.13;5.10;;;31.40;69.50;;;;;;5012563;28;20030;-76
2022/08/05 07:28:22;;;;;;;23.65;5.65;;;31.50;68.50;;;;;;5012709;28;20063;-77
2022/08/05 07:30:48;;;;;;;8.23;4.93;;;31.60;69.10;;;;;;5012276;28;20030;-77
2022/08/05 07:33:13;;;;;;;12.13;5.53;;;31.80;68.80;;;;;;5012453;28;20022;-77
2022/08/05 07:35:40;;;;;;;13.02;4.57;;;31.90;94.00;;;;;;5012373;28;20108;-72
2022/08/05 07:38:06;;;;;;;10.00;5.00;;;;;;;;;;5012632;28;20037;-72
2022/08/05 07:40:31;;;;;;;10.90;5.38;;;32.60;76.70;;;;;;5012099;28;20050;-77
2022/08/05 07:42:57;;;;;;;14.52;5.72;;;32.60;65.50;;;;;;5014137;28;20053;-78
2022/08/05 07:45:23;;;;;;;19.25;5.35;;;32.70;65.80;;;;;;5013624;28;20125;-80
2022/08/05 07:47:49;;;;;;;9.68;4.68;;;33.00;66.90;;;;;;4997226;28;20069;-78
2022/08/05 07:50:15;;;;;;;8.40;4.70;;;33.40;66.00;;;;;;5011878;28;20026;-76
2022/08/05 07:52:42;;;;;;;13.75;5.88;;;33.30;65.80;;;;;;5015835;28;20037;-78
2022/08/05 07:55:09;;;;;;;10.35;5.47;;;33.60;64.90;;;;;;5015827;28;20028;-75
2022/08/05 07:57:36;;;;;;;9.00;4.72;;;33.40;64.50;;;;;;5003437;28;20022;-77
2022/08/05 08:00:04;;;;;;;12.00;4.82;;;33.50;65.30;;;;;;4996936;28;20027;-77
2022/08/05 08:02:37;;;;;;;8.95;4.63;;;33.60;64.20;;;;;;5015563;28;20168;-78
2022/08/05 08:05:03;;;;;;;9.07;4.43;;;33.70;63.70;;;;;;5001338;28;20121;-77
2022/08/05 08:07:29;;;;;;;11.35;5.85;;;33.70;63.80;;;;;;5016196;28;20028;-78
2022/08/05 08:09:55;;;;;;;5.57;3.70;;;33.80;64.30;;;;;;5015143;28;20030;-77
2022/08/05 08:12:22;;;;;;;8.45;4.47;;;33.60;60.40;;;;;;5015190;28;20026;-77
2022/08/05 08:14:50;;;;;;;7.50;4.35;;;;;;;;;;5001401;28;20030;-77
2022/08/05 08:17:16;;;;;;;9.57;4.65;;;;;;;;;;5015452;28;20026;-78
2022/08/05 08:19:43;;;;;;;12.48;5.05;;;;;;;;;;5015492;28;20057;-78
2022/08/05 08:22:09;;;;;;;8.65;4.45;;;34.50;58.20;;;;;;5015411;28;20022;-78
2022/08/05 08:24:35;;;;;;;12.13;4.78;;;33.70;60.40;;;;;;5015169;28;20019;-76
2022/08/05 08:27:03;;;;;;;9.45;4.25;;;34.30;59.80;;;;;;5015392;28;20095;-77
2022/08/05 08:29:28;;;;;;;15.55;4.05;;;34.50;63.20;;;;;;5015111;28;20026;-75
2022/08/05 08:31:54;;;;;;;10.98;4.93;;;34.60;60.30;;;;;;5014884;28;20030;-76
2022/08/05 08:34:22;;;;;;;8.25;4.70;;;34.70;66.10;;;;;;5015060;28;20032;-77
2022/08/05 08:36:48;;;;;;;10.60;4.60;;;34.70;59.60;;;;;;5015020;28;20037;-78
2022/08/05 08:39:16;;;;;;;12.00;5.00;;;34.70;59.40;;;;;;5014649;28;20025;-78
2022/08/05 08:41:47;;;;;;;8.43;4.78;;;34.20;61.10;;;;;;5014938;28;20105;-78
2022/08/05 08:44:14;;;;;;;13.43;5.30;;;;;;;;;;5014896;28;20085;-78
2022/08/05 08:46:42;;;;;;;12.23;5.15;;;34.70;61.90;;;;;;5014860;28;20120;-74
2022/08/05 08:49:09;;;;;;;12.35;5.50;;;34.50;60.20;;;;;;5001614;28;20029;-78
2022/08/05 08:51:37;;;;;;;14.02;5.85;;;34.90;60.60;;;;;;5014682;28;20187;-78
2022/08/05 08:54:03;;;;;;;15.55;5.47;;;35.00;61.70;;;;;;5014395;28;20034;-78
2022/08/05 08:56:31;;;;;;;17.15;5.25;;;35.20;61.10;;;;;;5015093;28;20476;-78
2022/08/05 08:58:58;;;;;;;10.60;5.93;;;35.50;63.30;;;;;;5014641;28;20033;-78
2022/08/05 09:01:24;;;;;;;22.48;6.28;;;34.70;60.00;;;;;;5014146;28;20469;-78
2022/08/05 09:03:52;;;;;;;11.00;4.68;;;35.10;61.00;;;;;;5012656;28;20531;-79
2022/08/05 09:06:18;;;;;;;13.48;5.05;;;35.40;60.20;;;;;;5014051;28;20030;-79
2022/08/05 09:08:44;;;;;;;8.77;4.47;;;35.50;59.80;;;;;;5013883;28;20064;-79
2022/08/05 09:11:12;;;;;;;10.80;5.50;;;34.90;56.40;;;;;;5013983;28;20499;-74
2022/08/05 09:13:38;;;;;;;11.20;4.80;;;35.30;57.60;;;;;;5013124;28;20577;-78
2022/08/05 09:16:07;;;;;;;13.63;4.80;;;35.30;57.40;;;;;;5014197;28;20124;-78
2022/08/05 09:18:35;;;;;;;12.80;4.40;;;35.20;57.70;;;;;;5014440;28;20021;-79
2022/08/05 09:21:01;;;;;;;10.07;4.40;;;35.10;59.00;;;;;;5014043;28;20096;-79
2022/08/05 09:23:27;;;;;;;11.07;5.00;;;34.60;61.00;;;;;;5014396;28;20353;-77
2022/08/05 09:26:09;;;;;;;8.15;5.07;;;35.10;61.80;;;;;;5014034;28;20109;-78
2022/08/05 09:28:37;;;;;;;10.73;3.80;;;35.50;61.30;;;;;;5013244;28;20033;-79
2022/08/05 09:31:08;;;;;;;6.57;3.42;;;35.70;66.60;;;;;;5013938;28;20037;-77
2022/08/05 09:33:52;;;;;;;6.45;3.22;;;35.50;73.10;;;;;;5013432;28;20530;-77
2022/08/05 09:36:18;;;;;;;6.57;3.00;;;35.00;63.60;;;;;;5002139;28;20030;-77
2022/08/05 09:39:02;;;;;;;9.13;3.40;;;35.50;81.30;;;;;;5013803;28;20026;-65
2022/08/05 09:41:28;;;;;;;4.75;3.03;;;35.80;61.70;;;;;;5013852;28;20034;-77
2022/08/05 09:43:53;;;;;;;3.78;2.97;;;35.80;60.60;;;;;;5013504;28;20049;-79
2022/08/05 09:46:37;;;;;;;4.75;2.50;;;36.10;60.30;;;;;;5013778;28;20022;-76
2022/08/05 09:49:05;;;;;;;7.97;3.15;;;;;;;;;;5013960;28;20030;-78
2022/08/05 09:51:36;;;;;;;5.28;2.95;;;36.40;55.40;;;;;;5013500;28;20053;-77
2022/08/05 09:54:06;;;;;;;7.90;3.05;;;;;;;;;;5013659;28;20113;-74
2022/08/05 09:56:33;;;;;;;8.35;3.85;;;36.60;58.80;;;;;;5014056;28;20061;-80
2022/08/05 09:59:04;;;;;;;3.63;2.90;;;36.70;60.50;;;;;;5013772;28;20032;-77
2022/08/05 10:01:35;;;;;;;4.63;2.80;;;36.60;59.30;;;;;;5013405;28;20361;-78
2022/08/05 10:04:04;;;;;;;7.75;3.25;;;36.60;54.90;;;;;;5013634;28;20022;-80
2022/08/05 10:06:31;;;;;;;4.88;2.88;;;36.80;56.20;;;;;;5013120;28;20021;-76
2022/08/05 10:09:16;;;;;;;4.18;2.85;;;36.60;55.60;;;;;;5013073;28;20026;-76
2022/08/05 10:11:43;;;;;;;4.22;2.72;;;36.70;57.20;;;;;;5012977;28;20137;-77
2022/08/05 10:14:26;;;;;;;3.15;2.67;;;36.40;59.30;;;;;;5013537;28;20381;-77
2022/08/05 10:16:55;;;;;;;3.67;2.95;;;36.10;61.30;;;;;;5012832;28;20273;-78
2022/08/05 10:19:22;;;;;;;5.20;3.00;;;35.50;60.50;;;;;;5013150;28;20384;-78
2022/08/05 10:21:48;;;;;;;5.20;3.30;;;35.10;58.80;;;;;;5013110;28;20037;-76
2022/08/05 10:24:16;;;;;;;4.32;2.90;;;35.00;59.70;;;;;;5012912;28;20427;-80
2022/08/05 10:26:45;;;;;;;6.25;3.08;;;35.10;58.40;;;;;;5013970;28;20101;-79
2022/08/05 10:29:11;;;;;;;6.40;3.38;;;35.20;62.30;;;;;;5013163;28;20018;-79
2022/08/05 10:31:40;;;;;;;7.13;3.10;;;35.50;62.60;;;;;;5013031;28;20484;-79
2022/08/05 10:34:09;;;;;;;6.95;3.33;;;35.40;63.50;;;;;;5013183;28;20109;-79
2022/08/05 10:36:40;;;;;;;4.72;3.60;;;35.40;61.20;;;;;;5012856;28;20034;-79
2022/08/05 10:39:13;;;;;;;6.22;3.30;;;35.50;61.30;;;;;;5012095;28;20030;-79
2022/08/05 10:42:10;;;;;;;4.93;3.38;;;35.60;64.20;;;;;;5012784;28;20088;-79
2022/08/05 10:44:37;;;;;;;6.28;3.30;;;35.60;59.00;;;;;;5030363;28;20469;-75
2022/08/05 10:47:15;;;;;;;8.05;3.17;;;35.90;61.80;;;;;;5030249;28;20558;-79
2022/08/05 10:50:15;;;;;;;6.35;3.25;;;35.70;57.20;;;;;;5030629;28;20042;-79
2022/08/05 10:52:45;;;;;;;4.65;3.13;;;35.60;61.50;;;;;;4990529;28;20042;-76
2022/08/05 10:55:13;;;;;;;4.72;3.45;;;35.70;60.00;;;;;;4990983;28;20058;-78
2022/08/05 10:57:42;;;;;;;5.22;3.33;;;35.80;61.90;;;;;;4990244;28;20069;-73
2022/08/05 11:00:11;;;;;;;6.20;3.40;;;36.00;62.90;;;;;;4991124;28;20030;-75
2022/08/05 11:02:37;;;;;;;5.75;3.60;;;36.00;61.30;;;;;;4990674;28;20110;-78
2022/08/05 11:05:09;;;;;;;6.07;3.05;;;35.80;60.20;;;;;;4990822;28;20031;-78
2022/08/05 11:07:56;;;;;;;6.60;3.55;;;35.80;63.20;;;;;;4991046;28;20084;-78
2022/08/05 11:10:23;;;;;;;5.40;3.38;;;35.60;64.20;;;;;;4991053;28;20085;-77
2022/08/05 11:12:49;;;;;;;5.75;3.25;;;35.70;61.90;;;;;;4990719;28;20130;-79
2022/08/05 11:15:15;;;;;;;6.22;3.50;;;35.70;59.60;;;;;;4990893;28;20137;-77
2022/08/05 11:17:42;;;;;;;4.10;3.42;;;35.70;62.40;;;;;;4992762;28;20062;-77
2022/08/05 11:20:37;;;;;;;4.57;3.15;;;35.60;62.10;;;;;;4994449;28;20038;-77
2022/08/05 11:23:30;;;;;;;4.85;3.45;;;35.70;68.00;;;;;;4966302;28;20035;-78
2022/08/05 11:26:05;;;;;;;6.13;3.30;;;35.40;73.10;;;;;;4975323;28;20027;-77
2022/08/05 11:28:31;;;;;;;4.88;3.33;;;35.50;62.10;;;;;;5000437;28;20377;-72
2022/08/05 11:30:57;;;;;;;4.13;3.30;;;35.50;61.80;;;;;;5016250;28;20041;-75
2022/08/05 11:33:35;;;;;;;5.72;4.00;;;35.30;60.60;;;;;;5015837;28;20038;-78
2022/08/05 11:36:03;;;;;;;9.23;3.58;;;35.50;59.10;;;;;;5016052;28;20026;-77
2022/08/05 11:38:38;;;;;;;6.72;3.30;;;35.70;59.30;;;;;;5016552;28;20384;-77
2022/08/05 11:41:08;;;;;;;4.88;3.30;;;35.70;61.90;;;;;;5016304;28;20053;-77
2022/08/05 11:43:34;;;;;;;5.93;3.50;;;35.60;63.60;;;;;;5015914;28;20057;-80
2022/08/05 11:46:01;;;;;;;5.13;3.38;;;35.40;59.80;;;;;;5015904;28;20034;-77
2022/08/05 11:48:27;;;;;;;4.97;2.85;;;35.60;57.50;;;;;;5016113;28;20472;-77
2022/08/05 11:50:53;;;;;;;3.92;3.15;;;35.50;58.30;;;;;;5015845;28;20121;-76
2022/08/05 11:53:20;;;;;;;8.90;2.83;;;35.60;62.60;;;;;;5016193;28;20052;-77
2022/08/05 11:56:00;;;;;;;7.07;2.85;;;35.60;58.60;;;;;;5017419;28;20109;-78
2022/08/05 11:58:33;;;;;;;4.65;3.20;;;35.20;56.80;;;;;;5024729;28;20538;-78
2022/08/05 12:01:05;;;;;;;9.00;3.58;;;35.20;58.40;;;;;;5028196;28;20080;-69
2022/08/05 12:03:54;;;;;;;5.95;3.53;;;35.30;58.10;;;;;;5009335;28;20034;-79
2022/08/05 12:06:27;;;;;;;5.43;3.70;;;35.50;57.50;;;;;;5010294;28;20073;-80
2022/08/05 12:08:55;;;;;;;5.30;3.25;;;35.60;61.10;;;;;;5015835;28;20377;-76
2022/08/05 12:11:26;;;;;;;5.35;3.28;;;35.70;59.00;;;;;;5015113;28;20041;-77
2022/08/05 12:14:00;;;;;;;3.77;2.97;;;35.90;57.90;;;;;;5011550;28;20377;-79
2022/08/05 12:16:32;;;;;;;4.97;3.03;;;35.80;59.60;;;;;;5012024;28;20419;-78
2022/08/05 12:18:58;;;;;;;4.50;3.15;;;35.70;58.10;;;;;;5015462;28;20028;-78
2022/08/05 12:21:28;;;;;;;6.07;3.30;;;35.70;57.80;;;;;;5015350;28;20021;-78
2022/08/05 12:24:16;;;;;;;3.85;3.15;;;35.80;58.70;;;;;;5015434;28;20447;-78
2022/08/05 12:26:45;;;;;;;5.97;3.58;;;35.70;58.00;;;;;;5015267;28;20455;-78
2022/08/05 12:29:16;;;;;;;4.82;3.28;;;35.60;58.40;;;;;;5015261;28;20069;-77
2022/08/05 12:31:57;;;;;;;5.07;3.13;;;35.60;58.40;;;;;;5018716;28;20084;-79
2022/08/05 12:34:32;;;;;;;4.63;3.42;;;35.60;57.00;;;;;;5014870;28;20488;-78
2022/08/05 12:37:06;;;;;;;3.90;3.40;;;35.70;59.50;;;;;;5011983;28;20033;-79
2022/08/05 12:39:32;;;;;;;6.28;3.40;;;35.70;56.80;;;;;;5014262;28;20030;-78
2022/08/05 12:41:59;;;;;;;4.28;3.13;;;35.20;57.60;;;;;;5014415;28;20024;-77
2022/08/05 12:44:26;;;;;;;5.38;3.28;;;;;;;;;;5014572;28;20037;-77
2022/08/05 12:46:53;;;;;;;4.80;3.50;;;35.00;56.30;;;;;;5015490;28;20034;-72
2022/08/05 12:49:20;;;;;;;5.60;3.67;;;35.00;55.60;;;;;;5013635;28;20026;-76
2022/08/05 12:51:50;;;;;;;4.53;3.60;;;35.30;58.80;;;;;;5012860;28;20056;-78
2022/08/05 12:54:27;;;;;;;4.75;3.55;;;35.20;59.80;;;;;;5014215;28;20065;-78
2022/08/05 12:56:55;;;;;;;17.23;4.10;;;35.00;57.90;;;;;;5014174;28;20026;-77
2022/08/05 12:59:23;;;;;;;3.75;3.38;;;34.70;59.80;;;;;;5014263;28;20098;-79
2022/08/05 13:02:06;;;;;;;7.18;3.60;;;34.70;56.40;;;;;;5014263;28;20026;-79
2022/08/05 13:04:36;;;;;;;5.97;4.10;;;35.10;72.30;;;;;;5014037;28;20030;-80